Wilbur Observed Data For Previous 48 Hours

Caption
Day and Hour Reservoir Elevation (behind dam)* Tailwater Elevation (below dam)* Average Hourly Discharge*
1/17/2018 2 AM EST 1,648.56 1,585.93 1,755
1/17/2018 3 AM EST 1,647.84 1,585.98 1,759
1/17/2018 4 AM EST 1,647.08 1,586.00 1,754
1/17/2018 5 AM EST 1,646.34 1,586.04 1,739
1/17/2018 6 AM EST 1,647.61 1,583.82 288
1/17/2018 7 AM EST 1,648.83 1,583.88 242
1/17/2018 8 AM EST 1,648.55 1,586.16 1,355
1/17/2018 9 AM EST 1,647.82 1,586.13 1,754
1/17/2018 10 AM EST 1,647.09 1,586.09 1,744
1/17/2018 11 AM EST 1,647.83 1,583.72 662
1/17/2018 12 PM EST 1,649.02 1,583.70 244
1/17/2018 1 PM EST 1,648.71 1,585.99 1,368
1/17/2018 2 PM EST 1,647.98 1,585.96 1,753
1/17/2018 3 PM EST 1,647.24 1,585.93 1,752
1/17/2018 4 PM EST 1,647.48 1,583.64 1,059
1/17/2018 5 PM EST 1,648.68 1,583.78 241
1/17/2018 6 PM EST 1,648.74 1,586.21 1,079
1/17/2018 7 PM EST 1,648.01 1,586.35 1,757
1/17/2018 8 PM EST 1,647.27 1,586.43 1,751
1/17/2018 9 PM EST 1,646.51 1,586.56 1,745
1/17/2018 10 PM EST 1,645.76 1,586.62 1,738
1/17/2018 11 PM EST 1,646.21 1,584.51 927
1/18/2018 12 AM EST 1,647.51 1,584.64 230
1/18/2018 1 AM EST 1,648.65 1,585.49 241
1/18/2018 2 AM EST 1,648.02 1,586.76 1,699
1/18/2018 3 AM EST 1,647.32 1,586.75 1,746
1/18/2018 4 AM EST 1,646.58 1,586.82 1,743
1/18/2018 5 AM EST 1,647.83 1,584.93 290
1/18/2018 6 AM EST 1,648.95 1,585.85 243
1/18/2018 7 AM EST 1,648.32 1,586.76 1,725
1/18/2018 8 AM EST 1,647.65 1,587.16 1,747
1/18/2018 9 AM EST 1,648.81 1,584.93 296
1/18/2018 10 AM EST 1,648.73 1,586.25 1,186
1/18/2018 11 AM EST 1,647.99 1,585.82 1,751
1/18/2018 12 PM EST 1,647.24 1,585.74 1,747
1/18/2018 1 PM EST 1,647.65 1,584.18 669
1/18/2018 2 PM EST 1,648.49 1,583.33 278
1/18/2018 3 PM EST 1,648.85 1,585.76 823
1/18/2018 4 PM EST 1,648.14 1,585.81 1,757
1/18/2018 5 PM EST 1,649.16 1,584.91 306
1/18/2018 6 PM EST 1,648.49 1,585.91 1,749
1/18/2018 7 PM EST 1,647.73 1,585.98 1,756
1/18/2018 8 PM EST 1,647.01 1,586.02 1,745
1/18/2018 9 PM EST 1,648.16 1,584.56 281
1/18/2018 10 PM EST 1,647.51 1,586.03 1,698
1/18/2018 11 PM EST 1,646.78 1,586.04 1,737
1/19/2018 12 AM EST 1,648.03 1,583.68 279

Elevations are in feet above sea level. Discharges are in cubic feet per second and are reported at the end of the hour.